Terminal Aerodrome Forecast
Issued by NWS

Home | Current Version | Previous Version | Graphics & Text | Print | Product List | Glossary On
Versions: 1 2 3 4 5 6 7 8 9 10 11 12 13 14 15 16 17 18 19
745
FTUS43 KLSX 191734
TAFSUS
TAF
KSUS 191734Z 1918/2018 27008KT P6SM SCT025 BKN100
     FM192200 02007KT P6SM VCTS BKN050CB
     FM200200 05010G17KT P6SM BKN040
     FM200400 07010G16KT P6SM SHRA VCTS OVC040CB
     FM200900 12007KT P6SM SHRA VCTS OVC025CB
     FM201200 15009KT P6SM OVC035=

USA.gov is the U.S. government's official web portal to all federal, state and local government web resources and services.